Webster, NY

3:20 PM EDT on August 30, 2015 (GMT -0400)
Five Mile Line Rd. near Plank Rd. | | Change Station
CLOSE
Current Station
Personal Weather Station
Location: Webster/Penfield, NY
Elevation: 453 ft
Nearby Weather Stations

Elev 453 ft 43.19 °N, 77.48 °W | Updated 10 seconds ago

Partly Cloudy
Partly Cloudy
77.8 °F
Feels Like 80 °F
N
0.0
Wind Variable Wind from NNW
Gusts 9.3 mph

Today
High -- | Low -- °F
--% Chance of Precip.
Yesterday
High -- | Low -- °F
Precip. -- in
6:31 AM 7:48 PM
Full, 98% visible
Pressure 30.06 in
Visibility 10.0 miles
Clouds Few 4300 ft
Scattered Clouds 7500 ft
Scattered Clouds 13000 ft
Heat Index 80 °F
Dew Point 66 °F
Humidity 67%
Rainfall 0.00 in
Snow Depth Not available.
UV 6 out of 12
Pollen 9.80 out of 12
Air Quality Not available.
Flu Activity Not available.
METAR KROC 301854Z 31007KT 10SM FEW043 SCT075 SCT130 27/16 A3006 RMK AO2 SLP178 T02720161
Pressure 30.06 in
Visibility 10.0 miles
Clouds Few 4300 ft
Scattered Clouds 7500 ft
Scattered Clouds 13000 ft
Heat Index 80 °F
Dew Point 66 °F
Humidity 67%
Rainfall 0.00 in
Snow Depth Not available.
UV 6 out of 12
Pollen 9.80 out of 12
Air Quality Not available.
Flu Activity Not available.
METAR KROC 301854Z 31007KT 10SM FEW043 SCT075 SCT130 27/16 A3006 RMK AO2 SLP178 T02720161

10-Day Weather Forecast

×

Almanac

Astronomy

Aug. 30, 2015 Rise Set
Actual Time
Civil Twilight
Nautical Twilight
Astronomical Twilight
Moon
Length of Visible Light
Length of Day
Tomorrow will be .
, % of the Moon is Illuminated

Today's Extremes

State Highs State Lows

Community

WunderPhotos

Upload Photos

1,851,036 photos uploaded!

WunderBlogs® & News

Nearby

Air Quality

  Air Quality AQ Index Pollutant
Not available.

Snow Depth

Station Depth Elevation

Earthquake Activity

City Distance Mag. Time & Date
Minimum magnitude displayed is 2.5.

Coastal Water Temperatures

Place Temperature

Stations

Nearby Weather Stations

Station Location Temp. Windchill Dew Point Humidity Wind Precip. Elev Updated Type